createdAt,value
2018-11-05T00:04:00.000Z,98964
2018-11-05T00:09:00.000Z,98953
2018-11-05T00:14:00.000Z,98942
2018-11-05T00:19:00.000Z,98946
2018-11-05T00:24:00.000Z,98947
2018-11-05T00:29:00.000Z,98941
2018-11-05T00:34:00.000Z,98942
2018-11-05T00:39:00.000Z,98941
2018-11-05T00:44:00.000Z,98942
2018-11-05T00:50:00.000Z,98938
2018-11-05T00:55:00.000Z,98947
2018-11-05T01:00:00.000Z,98948
2018-11-05T01:05:00.000Z,98952
2018-11-05T01:10:00.000Z,98946
2018-11-05T01:15:00.000Z,98940
2018-11-05T01:20:00.000Z,98940
2018-11-05T01:25:00.000Z,98943
2018-11-05T01:30:00.000Z,98942
2018-11-05T01:35:00.000Z,98925
2018-11-05T01:40:00.000Z,98928
2018-11-05T01:45:00.000Z,98934
2018-11-05T01:50:00.000Z,98919
2018-11-05T01:55:00.000Z,98917
2018-11-05T02:00:00.000Z,98921
2018-11-05T02:05:00.000Z,98918
2018-11-05T02:10:00.000Z,98907
2018-11-05T02:15:00.000Z,98895
2018-11-05T02:20:00.000Z,98902
2018-11-05T02:25:00.000Z,98902
2018-11-05T02:30:00.000Z,98898
2018-11-05T02:35:00.000Z,98895
2018-11-05T02:40:00.000Z,98899
2018-11-05T02:45:00.000Z,98902
2018-11-05T02:50:00.000Z,98901
2018-11-05T02:55:00.000Z,98896
2018-11-05T03:00:00.000Z,98902
2018-11-05T03:05:00.000Z,98905
2018-11-05T03:10:00.000Z,98909
2018-11-05T03:15:00.000Z,98913
2018-11-05T03:20:00.000Z,98909
2018-11-05T03:25:00.000Z,98906
2018-11-05T03:30:00.000Z,98909
2018-11-05T03:36:00.000Z,98912
2018-11-05T03:41:00.000Z,98911
2018-11-05T03:46:00.000Z,98912
2018-11-05T03:51:00.000Z,98909
2018-11-05T03:56:00.000Z,98910
2018-11-05T04:01:00.000Z,98908
2018-11-05T04:06:00.000Z,98906
2018-11-05T04:11:00.000Z,98922
2018-11-05T04:16:00.000Z,98920
2018-11-05T04:21:00.000Z,98914
2018-11-05T04:26:00.000Z,98910
2018-11-05T04:31:00.000Z,98916
2018-11-05T04:36:00.000Z,98914
2018-11-05T04:41:00.000Z,98915
2018-11-05T04:46:00.000Z,98914
2018-11-05T04:51:00.000Z,98910
2018-11-05T04:56:00.000Z,98920
2018-11-05T05:01:00.000Z,98913
2018-11-05T05:06:00.000Z,98901
2018-11-05T05:11:00.000Z,98905
2018-11-05T05:16:00.000Z,98907
2018-11-05T05:21:00.000Z,98901
2018-11-05T05:26:00.000Z,98910
2018-11-05T05:31:00.000Z,98909
2018-11-05T05:36:00.000Z,98910
2018-11-05T05:41:00.000Z,98916
2018-11-05T05:46:00.000Z,98922
2018-11-05T05:51:00.000Z,98928
2018-11-05T05:56:00.000Z,98924
2018-11-05T06:01:00.000Z,98931
2018-11-05T06:06:00.000Z,98941
2018-11-05T06:11:00.000Z,98930
2018-11-05T06:16:00.000Z,98946
2018-11-05T06:21:00.000Z,98945
2018-11-05T06:26:00.000Z,98948
2018-11-05T06:31:00.000Z,98945
2018-11-05T06:36:00.000Z,98945
2018-11-05T06:41:00.000Z,98954
2018-11-05T06:46:00.000Z,98954
2018-11-05T06:51:00.000Z,98961
2018-11-05T06:57:00.000Z,98964
2018-11-05T07:02:00.000Z,98967
2018-11-05T07:07:00.000Z,98962
2018-11-05T07:12:00.000Z,98963
2018-11-05T07:17:00.000Z,98967
2018-11-05T07:22:00.000Z,98978
2018-11-05T07:27:00.000Z,98975
2018-11-05T07:32:00.000Z,98984
2018-11-05T07:37:00.000Z,98987
2018-11-05T07:42:00.000Z,98976
2018-11-05T07:47:00.000Z,98972
2018-11-05T07:52:00.000Z,98981
2018-11-05T07:57:00.000Z,98970
2018-11-05T08:02:00.000Z,98986
2018-11-05T08:07:00.000Z,98975
2018-11-05T08:12:00.000Z,98980
2018-11-05T08:17:00.000Z,98981
2018-11-05T08:22:00.000Z,98982
2018-11-05T08:27:00.000Z,98992
2018-11-05T08:32:00.000Z,98989
2018-11-05T08:37:00.000Z,98980
2018-11-05T08:42:00.000Z,98975
2018-11-05T08:47:00.000Z,98973
2018-11-05T08:52:00.000Z,98978
2018-11-05T08:57:00.000Z,98973
2018-11-05T09:02:00.000Z,98978
2018-11-05T09:07:00.000Z,98974
2018-11-05T09:12:00.000Z,98980
2018-11-05T09:17:00.000Z,98971
2018-11-05T09:22:00.000Z,98978
2018-11-05T09:27:00.000Z,98972
2018-11-05T09:32:00.000Z,98977
2018-11-05T09:37:00.000Z,98975
2018-11-05T09:42:00.000Z,98978
2018-11-05T09:47:00.000Z,98973
2018-11-05T09:52:00.000Z,98978
2018-11-05T09:57:00.000Z,98981
2018-11-05T10:02:00.000Z,98981
2018-11-05T10:07:00.000Z,98979
2018-11-05T10:12:00.000Z,98979
2018-11-05T10:17:00.000Z,98982
2018-11-05T10:22:00.000Z,98977
2018-11-05T10:27:00.000Z,98966
2018-11-05T10:32:00.000Z,98967
2018-11-05T10:37:00.000Z,98958
2018-11-05T10:42:00.000Z,98955
2018-11-05T10:47:00.000Z,98942
2018-11-05T10:52:00.000Z,98954
2018-11-05T10:57:00.000Z,98954
2018-11-05T11:02:00.000Z,98946
2018-11-05T11:07:00.000Z,98939
2018-11-05T11:12:00.000Z,98944
2018-11-05T11:17:00.000Z,98944
2018-11-05T11:22:00.000Z,98939
2018-11-05T11:27:00.000Z,98933
2018-11-05T11:32:00.000Z,98943
2018-11-05T11:37:00.000Z,98927
2018-11-05T11:42:00.000Z,98924
2018-11-05T11:47:00.000Z,98923
2018-11-05T11:52:00.000Z,98921
2018-11-05T11:57:00.000Z,98925
2018-11-05T12:02:00.000Z,98913
2018-11-05T12:07:00.000Z,98899
2018-11-05T12:12:00.000Z,98890
2018-11-05T12:17:00.000Z,98886
2018-11-05T12:22:00.000Z,98878
2018-11-05T12:27:00.000Z,98873
2018-11-05T12:32:00.000Z,98871
2018-11-05T12:37:00.000Z,98868
2018-11-05T12:42:00.000Z,98863
2018-11-05T12:47:00.000Z,98855
2018-11-05T12:52:00.000Z,98847
2018-11-05T12:58:00.000Z,98851
2018-11-05T13:03:00.000Z,98853
2018-11-05T13:08:00.000Z,98849
2018-11-05T13:13:00.000Z,98835
2018-11-05T13:18:00.000Z,98834
2018-11-05T13:23:00.000Z,98835
2018-11-05T13:28:00.000Z,98840
2018-11-05T13:33:00.000Z,98834
2018-11-05T13:38:00.000Z,98835
2018-11-05T13:43:00.000Z,98832
2018-11-05T13:48:00.000Z,98833
2018-11-05T13:53:00.000Z,98835
2018-11-05T13:58:00.000Z,98822
2018-11-05T14:03:00.000Z,98823
2018-11-05T14:08:00.000Z,98826
2018-11-05T14:13:00.000Z,98818
2018-11-05T14:18:00.000Z,98825
2018-11-05T14:23:00.000Z,98823
2018-11-05T14:28:00.000Z,98817
2018-11-05T14:33:00.000Z,98813
2018-11-05T14:38:00.000Z,98816
2018-11-05T14:43:00.000Z,98824
2018-11-05T14:48:00.000Z,98821
2018-11-05T14:53:00.000Z,98822
2018-11-05T14:58:00.000Z,98827
2018-11-05T15:03:00.000Z,98818
2018-11-05T15:08:00.000Z,98816
2018-11-05T15:13:00.000Z,98814
2018-11-05T15:18:00.000Z,98815
2018-11-05T15:23:00.000Z,98816
2018-11-05T15:28:00.000Z,98808
2018-11-05T15:33:00.000Z,98805
2018-11-05T15:38:00.000Z,98805
2018-11-05T15:43:00.000Z,98815
2018-11-05T15:48:00.000Z,98810
2018-11-05T15:53:00.000Z,98809
2018-11-05T15:58:00.000Z,98813
2018-11-05T16:03:00.000Z,98813
2018-11-05T16:08:00.000Z,98828
2018-11-05T16:13:00.000Z,98823
2018-11-05T16:18:00.000Z,98826
2018-11-05T16:23:00.000Z,98824
2018-11-05T16:28:00.000Z,98826
2018-11-05T16:33:00.000Z,98823
2018-11-05T16:38:00.000Z,98835
2018-11-05T16:43:00.000Z,98837
2018-11-05T16:48:00.000Z,98834
2018-11-05T16:53:00.000Z,98823
2018-11-05T16:58:00.000Z,98834
2018-11-05T17:03:00.000Z,98832
2018-11-05T17:08:00.000Z,98826
2018-11-05T17:13:00.000Z,98826
2018-11-05T17:18:00.000Z,98824
2018-11-05T17:23:00.000Z,98814
2018-11-05T17:28:00.000Z,98816
2018-11-05T17:33:00.000Z,98826
2018-11-05T17:38:00.000Z,98830
2018-11-05T17:43:00.000Z,98831
2018-11-05T17:48:00.000Z,98829
2018-11-05T17:53:00.000Z,98810
2018-11-05T17:58:00.000Z,98811
2018-11-05T18:03:00.000Z,98820
2018-11-05T18:08:00.000Z,98815
2018-11-05T18:14:00.000Z,98815
2018-11-05T18:19:00.000Z,98804
2018-11-05T18:24:00.000Z,98813
2018-11-05T18:29:00.000Z,98808
2018-11-05T18:34:00.000Z,98803
2018-11-05T18:39:00.000Z,98801
2018-11-05T18:44:00.000Z,98810
2018-11-05T18:49:00.000Z,98818
2018-11-05T18:54:00.000Z,98806
2018-11-05T18:59:00.000Z,98818
2018-11-05T19:04:00.000Z,98811
2018-11-05T19:09:00.000Z,98821
2018-11-05T19:14:00.000Z,98816
2018-11-05T19:19:00.000Z,98809
2018-11-05T19:24:00.000Z,98821
2018-11-05T19:29:00.000Z,98817
2018-11-05T19:34:00.000Z,98831
2018-11-05T19:39:00.000Z,98831
2018-11-05T19:44:00.000Z,98844
2018-11-05T19:49:00.000Z,98849
2018-11-05T19:54:00.000Z,98847
2018-11-05T19:59:00.000Z,98842
2018-11-05T20:04:00.000Z,98828
2018-11-05T20:09:00.000Z,98826
2018-11-05T20:14:00.000Z,98833
2018-11-05T20:19:00.000Z,98832
2018-11-05T20:24:00.000Z,98832
2018-11-05T20:29:00.000Z,98839
2018-11-05T20:34:00.000Z,98846
2018-11-05T20:39:00.000Z,98840
2018-11-05T20:44:00.000Z,98848
2018-11-05T20:49:00.000Z,98862
2018-11-05T20:54:00.000Z,98864
2018-11-05T20:59:00.000Z,98856
2018-11-05T21:04:00.000Z,98863
2018-11-05T21:09:00.000Z,98865
2018-11-05T21:14:00.000Z,98863
2018-11-05T21:19:00.000Z,98862
2018-11-05T21:24:00.000Z,98857
2018-11-05T21:29:00.000Z,98862
2018-11-05T21:34:00.000Z,98861
2018-11-05T21:39:00.000Z,98857
2018-11-05T21:44:00.000Z,98857
2018-11-05T21:49:00.000Z,98867
2018-11-05T21:54:00.000Z,98865
2018-11-05T21:59:00.000Z,98869
2018-11-05T22:04:00.000Z,98864
2018-11-05T22:09:00.000Z,98858
2018-11-05T22:14:00.000Z,98850
2018-11-05T22:19:00.000Z,98850
2018-11-05T22:24:00.000Z,98846
2018-11-05T22:29:00.000Z,98845
2018-11-05T22:34:00.000Z,98847
2018-11-05T22:39:00.000Z,98856
2018-11-05T22:44:00.000Z,98866
2018-11-05T22:49:00.000Z,98875
2018-11-05T22:54:00.000Z,98875
2018-11-05T22:59:00.000Z,98870
2018-11-05T23:04:00.000Z,98871
2018-11-05T23:09:00.000Z,98877
2018-11-05T23:14:00.000Z,98863
2018-11-05T23:19:00.000Z,98874
2018-11-05T23:24:00.000Z,98876
2018-11-05T23:29:00.000Z,98871
2018-11-05T23:34:00.000Z,98854
2018-11-05T23:39:00.000Z,98862
2018-11-05T23:44:00.000Z,98862
2018-11-05T23:49:00.000Z,98860
2018-11-05T23:54:00.000Z,98857
2018-11-05T23:59:00.000Z,98855
